Time;durP1;ratioP1;P1;durP2;ratioP2;P2;SDS_P1;SDS_P2;PMS_P1;PMS_P2;Temp;Humidity;BMP_temperature;BMP_pressure;BME280_temperature;BME280_humidity;BME280_pressure;Samples;Min_cycle;Max_cycle;Signal;HPM_P1;HPM_P2
2022/12/31 00:01:06;;;;;;;51.05;22.10;;;;;;;;;;8300402;28;20205;-89
2022/12/31 00:05:10;;;;;;;36.92;16.38;;;;;;;;;;8300619;28;20076;-88
2022/12/31 00:09:14;;;;;;;36.05;15.52;;;;;;;;;;8300654;28;20086;-88
2022/12/31 00:13:17;;;;;;;36.83;17.92;;;;;;;;;;8292675;28;20042;-89
2022/12/31 00:17:19;;;;;;;39.53;19.00;;;;;;;;;;8300314;28;20077;-88
2022/12/31 00:21:23;;;;;;;43.83;21.85;;;;;;;;;;8300307;28;20482;-89
2022/12/31 00:25:27;;;;;;;46.97;21.88;;;;;;;;;;8300225;28;20042;-88
2022/12/31 00:29:30;;;;;;;39.00;19.25;;;;;;;;;;8299912;28;20104;-88
2022/12/31 00:33:33;;;;;;;50.65;21.52;;;;;;;;;;8300023;28;20124;-88
2022/12/31 00:37:35;;;;;;;42.65;19.50;;;;;;;;;;8299428;28;20042;-89
2022/12/31 00:41:42;;;;;;;43.67;19.30;;;;;;;;;;8299814;28;20141;-89
2022/12/31 00:45:45;;;;;;;40.00;18.65;;;;;;;;;;8299083;28;20422;-88
2022/12/31 00:49:48;;;;;;;33.88;14.52;;;;;;;;;;8266795;28;20189;-87
2022/12/31 00:53:51;;;;;;;40.05;18.60;;;;;;;;;;8299215;28;20050;-88
2022/12/31 00:57:55;;;;;;;34.65;16.48;;;;;;;;;;8298996;28;20077;-88
2022/12/31 01:01:58;;;;;;;23.63;10.55;;;;;;;;;;8298992;28;20132;-87
2022/12/31 01:06:00;;;;;;;35.25;14.52;;;;;;;;;;8299136;28;20054;-89
2022/12/31 01:10:04;;;;;;;40.70;18.75;;;;;;;;;;8298568;28;20091;-88
2022/12/31 01:14:10;;;;;;;33.47;14.90;;;;;;;;;;8297873;28;20558;-88
2022/12/31 01:18:13;;;;;;;41.90;17.65;;;;;;;;;;8298533;28;20421;-88
2022/12/31 01:22:16;;;;;;;32.08;14.50;;;;;;;;;;8298302;28;20486;-87
2022/12/31 01:26:20;;;;;;;33.03;15.77;;;;;;;;;;8285830;28;20046;-88
2022/12/31 01:30:24;;;;;;;18.08;9.30;;;;;;;;;;8298119;28;20042;-87
2022/12/31 01:34:28;;;;;;;34.25;16.08;;;;;;;;;;8289841;28;20438;-90
2022/12/31 01:38:30;;;;;;;33.35;15.85;;;;;;;;;;8291133;28;20045;-89
2022/12/31 01:42:33;;;;;;;34.60;17.50;;;;;;;;;;8287179;28;20906;-89
2022/12/31 01:46:39;;;;;;;27.83;11.55;;;;;;;;;;8268675;28;20510;-88
2022/12/31 01:50:43;;;;;;;31.50;16.65;;;;;;;;;;8284677;28;20045;-86
2022/12/31 01:54:50;;;;;;;22.08;9.77;;;;;;;;;;8289431;28;20092;-86
2022/12/31 01:58:56;;;;;;;29.65;16.02;;;;;;;;;;8257705;28;20409;-86
2022/12/31 02:03:00;;;;;;;32.40;14.88;;;;;;;;;;8264256;28;20038;-88
2022/12/31 02:07:06;;;;;;;24.85;13.15;;;;;;;;;;8268887;28;20049;-86
2022/12/31 02:11:22;;;;;;;22.27;12.02;;;;;;;;;;8290370;28;20052;-87
2022/12/31 02:15:33;;;;;;;28.63;14.75;;;;;;;;;;8284527;28;20100;-87
2022/12/31 02:20:11;;;;;;;31.95;15.30;;;;;;;;;;8293545;28;20045;-89
2022/12/31 02:24:32;;;;;;;22.85;11.20;;;;;;;;;;8250308;28;20069;-86
2022/12/31 02:28:52;;;;;;;21.95;11.13;;;;;;;;;;8291365;28;20487;-87
2022/12/31 02:33:04;;;;;;;25.30;12.18;;;;;;;;;;8273748;28;20042;-87
2022/12/31 02:37:12;;;;;;;25.00;12.38;;;;;;;;;;8275110;28;20041;-87
2022/12/31 02:41:48;;;;;;;14.07;7.68;;;;;;;;;;8283576;28;20497;-87
2022/12/31 02:45:44;;;;;;;26.42;12.05;;;;;;;;;;8282931;28;20425;-87
2022/12/31 02:49:59;;;;;;;25.55;11.85;;;;;;;;;;8283170;28;20129;-88
2022/12/31 02:54:13;;;;;;;21.80;10.63;;;;;;;;;;8286332;28;20048;-88
2022/12/31 03:02:12;;;;;;;24.20;10.57;;;;;;;;;;8286602;28;20517;-88
2022/12/31 03:02:47;;;;;;;24.33;10.48;;;;;;;;;;8292267;28;20049;-88
2022/12/31 03:06:53;;;;;;;17.98;10.40;;;;;;;;;;8283220;28;20046;-87
2022/12/31 03:10:56;;;;;;;21.17;9.40;;;;;;;;;;8295438;28;20537;-87
2022/12/31 03:14:59;;;;;;;21.58;9.68;;;;;;;;;;8293451;28;20061;-89
2022/12/31 03:23:25;;;;;;;17.65;10.18;;;;;;;;;;8275279;28;20052;-87
2022/12/31 03:27:27;;;;;;;14.35;7.85;;;;;;;;;;8270148;28;20096;-87
2022/12/31 03:31:30;;;;;;;19.38;8.88;;;;;;;;;;8262695;28;20084;-85
2022/12/31 03:35:34;;;;;;;16.08;8.02;;;;;;;;;;8276703;28;20121;-85
2022/12/31 03:39:39;;;;;;;14.50;8.07;;;;;;;;;;8276464;28;20141;-87
2022/12/31 03:43:41;;;;;;;12.82;7.32;;;;;;;;;;8288090;28;20057;-90
2022/12/31 03:47:45;;;;;;;17.65;8.77;;;;;;;;;;8300806;28;20050;-87
2022/12/31 03:51:47;;;;;;;13.75;8.18;;;;;;;;;;8289283;28;20054;-85
2022/12/31 03:55:53;;;;;;;17.17;8.82;;;;;;;;;;8270549;28;20103;-88
2022/12/31 03:59:55;;;;;;;14.75;8.30;;;;;;;;;;8276732;28;20052;-86
2022/12/31 04:03:58;;;;;;;16.20;8.50;;;;;;;;;;8283238;28;20088;-87
2022/12/31 04:08:04;;;;;;;16.90;8.68;;;;;;;;;;8289030;28;20045;-87
2022/12/31 04:12:08;;;;;;;20.25;8.90;;;;;;;;;;8288865;28;20457;-87
2022/12/31 04:16:11;;;;;;;18.63;10.23;;;;;;;;;;8300314;28;20041;-87
2022/12/31 04:20:14;;;;;;;16.60;8.65;;;;;;;;;;8300402;28;20138;-87
2022/12/31 04:24:17;;;;;;;16.02;8.50;;;;;;;;;;8300223;28;20053;-86
2022/12/31 04:28:21;;;;;;;19.92;9.32;;;;;;;;;;8300217;28;20161;-86
2022/12/31 04:32:24;;;;;;;18.65;9.52;;;;;;;;;;8299971;28;20493;-86
2022/12/31 04:36:27;;;;;;;17.50;9.48;;;;;;;;;;8299768;28;20156;-87
2022/12/31 04:40:29;;;;;;;22.52;10.00;;;;;;;;;;8299396;28;20046;-87
2022/12/31 04:44:34;;;;;;;18.55;10.38;;;;;;;;;;8299631;28;20060;-88
2022/12/31 04:48:37;;;;;;;16.33;8.82;;;;;;;;;;8299632;28;20481;-86
2022/12/31 04:52:40;;;;;;;21.52;9.95;;;;;;;;;;8299292;28;20434;-86
2022/12/31 04:56:42;;;;;;;18.38;9.10;;;;;;;;;;8299330;28;20046;-88
2022/12/31 05:00:49;;;;;;;19.58;9.85;;;;;;;;;;8299190;28;20137;-86
2022/12/31 05:04:52;;;;;;;22.23;10.30;;;;;;;;;;8299021;28;20053;-88
2022/12/31 05:08:55;;;;;;;19.42;9.93;;;;;;;;;;8298796;28;20176;-86
2022/12/31 05:12:57;;;;;;;23.80;11.88;;;;;;;;;;8298675;28;20100;-89
2022/12/31 05:17:02;;;;;;;25.90;10.80;;;;;;;;;;8298737;28;20129;-88
2022/12/31 05:21:06;;;;;;;19.40;10.38;;;;;;;;;;8298316;28;20544;-86
2022/12/31 05:25:09;;;;;;;22.63;11.77;;;;;;;;;;8298228;28;20050;-88
2022/12/31 05:29:12;;;;;;;21.90;10.23;;;;;;;;;;8298200;28;20068;-88
2022/12/31 05:33:20;;;;;;;22.92;9.77;;;;;;;;;;8298489;28;20057;-87
2022/12/31 05:37:23;;;;;;;21.27;10.85;;;;;;;;;;8284284;28;20042;-89
2022/12/31 05:41:26;;;;;;;18.33;10.43;;;;;;;;;;8279861;28;20060;-88
2022/12/31 05:45:28;;;;;;;20.33;10.95;;;;;;;;;;8295553;28;20466;-88
2022/12/31 05:49:33;;;;;;;23.88;12.68;;;;;;;;;;8297758;28;20128;-88
2022/12/31 05:53:35;;;;;;;23.27;10.40;;;;;;;;;;8284562;28;20049;-89
2022/12/31 05:57:39;;;;;;;18.67;9.57;;;;;;;;;;8297472;28;20461;-87
2022/12/31 06:01:41;;;;;;;18.75;9.15;;;;;;;;;;8296603;28;20406;-89
2022/12/31 06:05:46;;;;;;;20.92;7.88;;;;;;;;;;8293964;28;20046;-89
2022/12/31 06:09:49;;;;;;;22.23;11.52;;;;;;;;;;8287293;28;20081;-88
2022/12/31 06:13:52;;;;;;;19.17;9.30;;;;;;;;;;8297174;28;20046;-88
2022/12/31 06:17:54;;;;;;;24.17;12.02;;;;;;;;;;8296918;28;20479;-89
2022/12/31 06:21:58;;;;;;;20.95;10.80;;;;;;;;;;8279327;28;20122;-89
2022/12/31 06:26:02;;;;;;;23.60;11.40;;;;;;;;;;8266463;28;20044;-88
2022/12/31 06:30:06;;;;;;;20.77;11.63;;;;;;;;;;8273101;28;20437;-89
2022/12/31 06:34:09;;;;;;;17.30;10.45;;;;;;;;;;8284140;28;20481;-89
2022/12/31 06:38:13;;;;;;;23.40;11.05;;;;;;;;;;8291213;28;20134;-88
2022/12/31 06:42:16;;;;;;;22.27;10.98;;;;;;;;;;8283798;28;20414;-87
2022/12/31 06:46:18;;;;;;;22.40;10.68;;;;;;;;;;8264894;28;20522;-89
2022/12/31 06:50:21;;;;;;;21.00;9.98;;;;;;;;;;8296265;28;20476;-90
2022/12/31 06:54:25;;;;;;;20.90;10.90;;;;;;;;;;8294866;28;20053;-90
2022/12/31 06:58:29;;;;;;;32.33;15.15;;;;;;;;;;8273609;28;20065;-88
2022/12/31 07:02:52;;;;;;;23.38;11.88;;;;;;;;;;8270858;28;20084;-89
2022/12/31 07:07:04;;;;;;;17.85;9.05;;;;;;;;;;8296212;28;20045;-89
2022/12/31 07:11:14;;;;;;;19.67;11.25;;;;;;;;;;8299171;28;20053;-90
2022/12/31 07:15:25;;;;;;;20.88;9.75;;;;;;;;;;8295377;28;20073;-88
2022/12/31 07:19:39;;;;;;;17.73;10.25;;;;;;;;;;8296057;28;20136;-89
2022/12/31 07:23:43;;;;;;;22.25;9.60;;;;;;;;;;8302328;28;20477;-89
2022/12/31 07:28:01;;;;;;;21.23;11.20;;;;;;;;;;8289075;28;20134;-89
2022/12/31 07:32:11;;;;;;;24.52;11.18;;;;;;;;;;8288885;28;20465;-89
2022/12/31 07:36:27;;;;;;;21.70;10.77;;;;;;;;;;8301907;28;20580;-89
2022/12/31 07:40:37;;;;;;;28.58;10.93;;;;;;;;;;8301850;28;20494;-89
2022/12/31 07:44:55;;;;;;;20.92;9.68;;;;;;;;;;8288564;28;20060;-89
2022/12/31 07:48:58;;;;;;;20.77;10.98;;;;;;;;;;8301526;28;20046;-89
2022/12/31 07:53:01;;;;;;;27.38;15.60;;;;;;;;;;8301462;28;20053;-90
2022/12/31 07:57:07;;;;;;;47.83;20.13;;;;;;;;;;8288207;28;20041;-91
2022/12/31 08:01:14;;;;;;;16.75;10.98;;;;;;;;;;8280578;28;20065;-90
2022/12/31 08:05:23;;;;;;;30.45;18.85;;;;;;;;;;8275734;28;20057;-89
2022/12/31 08:09:37;;;;;;;13.48;7.95;;;;;;;;;;8255976;28;20137;-91
2022/12/31 08:13:41;;;;;;;21.45;12.82;;;;;;;;;;8269166;28;20050;-88
2022/12/31 08:17:46;;;;;;;15.23;9.77;;;;;;;;;;8276411;28;20125;-89
2022/12/31 08:22:04;;;;;;;17.75;8.73;;;;;;;;;;8276193;28;20081;-88
2022/12/31 08:26:19;;;;;;;20.73;11.20;;;;;;;;;;8274613;28;20501;-91
2022/12/31 08:30:28;;;;;;;16.45;10.82;;;;;;;;;;8264427;28;20042;-87
2022/12/31 08:34:41;;;;;;;18.65;11.73;;;;;;;;;;8266789;28;20104;-92
2022/12/31 08:38:47;;;;;;;;;;;;;;;;;;8266529;28;20145;-90
2022/12/31 08:43:06;;;;;;;30.58;16.58;;;;;;;;;;8282792;28;19931;-90
2022/12/31 08:47:17;;;;;;;25.20;12.07;;;;;;;;;;8263358;28;20408;-89
2022/12/31 08:51:24;;;;;;;20.60;10.52;;;;;;;;;;8266446;28;20459;-89
2022/12/31 08:55:27;;;;;;;16.50;9.32;;;;;;;;;;8276332;28;20371;-90
2022/12/31 08:59:42;;;;;;;16.30;7.95;;;;;;;;;;8283494;28;20046;-92
2022/12/31 09:04:03;;;;;;;15.23;8.60;;;;;;;;;;8281745;28;20414;-90
2022/12/31 09:08:19;;;;;;;16.95;9.57;;;;;;;;;;8274978;28;20050;-91
2022/12/31 09:12:28;;;;;;;46.95;21.17;;;;;;;;;;8302456;28;20405;-91
2022/12/31 09:16:40;;;;;;;21.63;9.27;;;;;;;;;;8298570;28;20100;-91
2022/12/31 09:20:43;;;;;;;14.90;7.53;;;;;;;;;;8266471;28;20050;-91
2022/12/31 09:24:48;;;;;;;15.98;8.68;;;;;;;;;;8278441;28;20166;-90
2022/12/31 09:28:57;;;;;;;14.98;7.70;;;;;;;;;;8285795;28;20139;-91
2022/12/31 09:33:05;;;;;;;12.57;7.40;;;;;;;;;;8298027;28;20045;-91
2022/12/31 09:37:15;;;;;;;20.83;13.30;;;;;;;;;;8298384;28;20056;-91
2022/12/31 09:41:36;;;;;;;30.65;21.23;;;;;;;;;;8290047;28;20041;-89
2022/12/31 09:46:15;;;;;;;22.63;12.48;;;;;;;;;;8297990;28;20057;-91
2022/12/31 09:51:03;;;;;;;17.20;9.40;;;;;;;;;;8298299;28;20502;-91
2022/12/31 09:55:24;;;;;;;16.48;10.20;;;;;;;;;;8197375;29;20546;-91
2022/12/31 09:59:36;;;;;;;13.57;7.32;;;;;;;;;;8197548;29;20558;-89
2022/12/31 10:04:10;;;;;;;11.80;6.03;;;;;;;;;;8197010;29;20542;-90
2022/12/31 10:08:29;;;;;;;17.08;8.68;;;;;;;;;;8192140;29;20138;-90
2022/12/31 10:12:54;;;;;;;10.35;6.28;;;;;;;;;;8196895;29;20155;-90
2022/12/31 10:17:08;;;;;;;12.02;7.35;;;;;;;;;;8196999;29;20425;-90
2022/12/31 10:21:42;;;;;;;19.02;10.68;;;;;;;;;;8174375;29;20519;-90
2022/12/31 10:26:00;;;;;;;12.32;6.35;;;;;;;;;;8227181;28;20081;-92
2022/12/31 10:30:15;;;;;;;12.70;6.40;;;;;;;;;;8283608;28;20073;-89
2022/12/31 10:34:26;;;;;;;15.45;7.88;;;;;;;;;;8295542;28;20042;-89
2022/12/31 10:38:39;;;;;;;17.38;8.57;;;;;;;;;;8297453;28;20383;-90
2022/12/31 10:43:02;;;;;;;;;;;;;;;;;;8292124;28;20042;-92
2022/12/31 10:47:44;;;;;;;10.25;5.82;;;;;;;;;;8267823;28;20279;-89
2022/12/31 10:52:19;;;;;;;9.27;5.05;;;;;;;;;;8279038;28;20122;-90
2022/12/31 10:56:56;;;;;;;10.20;6.18;;;;;;;;;;8266557;28;20077;-92
2022/12/31 11:01:07;;;;;;;8.88;5.10;;;;;;;;;;8266553;28;20133;-91
2022/12/31 11:05:45;;;;;;;7.90;4.63;;;;;;;;;;8263397;28;20177;-91
2022/12/31 11:10:20;;;;;;;7.70;3.47;;;;;;;;;;8277343;28;20042;-92
2022/12/31 11:15:02;;;;;;;7.13;4.20;;;;;;;;;;8271667;28;20054;-91
2022/12/31 11:19:14;;;;;;;10.00;8.30;;;;;;;;;;8224650;28;20121;-90
2022/12/31 11:23:24;;;;;;;;;;;;;;;;;;8270225;28;20054;-90
2022/12/31 11:27:46;;;;;;;20.20;8.05;;;;;;;;;;8277532;28;19933;-89
2022/12/31 11:32:15;;;;;;;6.03;3.55;;;;;;;;;;8291109;28;20144;-91
2022/12/31 11:36:33;;;;;;;10.23;4.53;;;;;;;;;;8267278;28;20050;-91
2022/12/31 11:40:42;;;;;;;34.50;15.63;;;;;;;;;;8280589;28;20050;-88
2022/12/31 11:44:57;;;;;;;37.72;13.18;;;;;;;;;;8269684;28;20065;-88
2022/12/31 11:49:21;;;;;;;35.92;12.32;;;;;;;;;;8277195;28;20042;-88
2022/12/31 11:53:48;;;;;;;24.33;8.40;;;;;;;;;;8264073;28;20050;-90
2022/12/31 11:57:52;;;;;;;13.85;6.55;;;;;;;;;;8262290;28;20050;-91
2022/12/31 12:02:04;;;;;;;12.20;7.97;;;;;;;;;;8267845;28;20046;-89
2022/12/31 12:06:12;;;;;;;38.60;9.82;;;;;;;;;;8267945;28;20125;-91
2022/12/31 12:10:24;;;;;;;14.55;6.05;;;;;;;;;;8270312;28;20053;-89
2022/12/31 12:14:32;;;;;;;7.60;4.18;;;;;;;;;;8269965;28;20444;-90
2022/12/31 12:18:42;;;;;;;31.08;9.52;;;;;;;;;;8268152;28;20125;-90
2022/12/31 12:22:50;;;;;;;20.92;10.07;;;;;;;;;;8267193;28;20512;-88
2022/12/31 12:26:54;;;;;;;10.70;5.30;;;;;;;;;;8278227;28;20069;-88
2022/12/31 12:31:00;;;;;;;27.98;8.68;;;;;;;;;;8278518;28;20057;-86
2022/12/31 12:35:16;;;;;;;11.68;5.43;;;;;;;;;;8288424;28;20129;-87
2022/12/31 12:39:22;;;;;;;11.82;5.28;;;;;;;;;;8283201;28;20064;-88
2022/12/31 12:43:28;;;;;;;9.73;5.40;;;;;;;;;;8277194;28;20046;-86
2022/12/31 12:47:33;;;;;;;18.70;9.68;;;;;;;;;;8276130;28;20042;-91
2022/12/31 12:52:06;;;;;;;12.05;5.78;;;;;;;;;;8278540;28;20046;-89
2022/12/31 12:56:24;;;;;;;13.85;6.15;;;;;;;;;;8287125;28;20058;-89
2022/12/31 13:00:32;;;;;;;8.73;4.82;;;;;;;;;;8288530;28;20076;-88
2022/12/31 13:05:02;;;;;;;8.88;4.35;;;;;;;;;;8286195;28;20072;-89
2022/12/31 13:09:18;;;;;;;7.25;4.10;;;;;;;;;;8285676;28;20136;-91
2022/12/31 13:13:33;;;;;;;7.35;4.50;;;;;;;;;;8292964;28;20516;-87
2022/12/31 13:17:55;;;;;;;8.27;4.30;;;;;;;;;;8285152;28;20069;-90
2022/12/31 13:22:04;;;;;;;9.07;4.30;;;;;;;;;;8282845;28;20046;-91
2022/12/31 13:26:16;;;;;;;6.50;3.85;;;;;;;;;;8288121;28;20046;-91
2022/12/31 13:30:23;;;;;;;7.32;3.58;;;;;;;;;;8267598;28;20176;-89
2022/12/31 13:34:30;;;;;;;8.13;4.38;;;;;;;;;;8278377;28;20049;-90
2022/12/31 13:38:37;;;;;;;8.00;3.65;;;;;;;;;;8288575;28;20125;-90
2022/12/31 13:42:47;;;;;;;9.02;5.85;;;;;;;;;;8290888;28;20050;-90
2022/12/31 13:47:00;;;;;;;7.38;3.92;;;;;;;;;;8278235;28;20064;-90
2022/12/31 13:51:09;;;;;;;7.15;3.63;;;;;;;;;;8289168;28;20069;-89
2022/12/31 13:55:16;;;;;;;6.93;4.00;;;;;;;;;;8286385;28;20406;-90
2022/12/31 13:59:22;;;;;;;6.53;3.83;;;;;;;;;;8285689;28;20046;-91
2022/12/31 14:03:38;;;;;;;10.93;5.15;;;;;;;;;;8295341;28;20128;-90
2022/12/31 14:07:47;;;;;;;9.50;5.00;;;;;;;;;;8283425;28;20437;-90
2022/12/31 14:12:19;;;;;;;9.93;5.32;;;;;;;;;;8277982;28;20046;-90
2022/12/31 14:16:29;;;;;;;8.02;4.28;;;;;;;;;;8284842;28;20052;-89
2022/12/31 14:20:45;;;;;;;7.65;4.20;;;;;;;;;;8282318;28;20064;-90
2022/12/31 14:24:50;;;;;;;10.38;6.22;;;;;;;;;;8265473;28;20074;-89
2022/12/31 14:29:02;;;;;;;8.88;5.65;;;;;;;;;;8276713;28;20145;-89
2022/12/31 14:33:18;;;;;;;6.10;3.50;;;;;;;;;;8292632;28;20070;-91
2022/12/31 14:37:30;;;;;;;7.05;3.92;;;;;;;;;;8272163;28;20486;-90
2022/12/31 14:41:44;;;;;;;11.02;5.55;;;;;;;;;;8266141;28;20173;-91
2022/12/31 14:46:01;;;;;;;5.95;3.97;;;;;;;;;;8276149;28;20058;-90
2022/12/31 14:50:09;;;;;;;12.10;7.63;;;;;;;;;;8270230;28;20130;-93
2022/12/31 14:54:36;;;;;;;7.40;4.05;;;;;;;;;;8288088;28;20046;-91
2022/12/31 14:58:41;;;;;;;9.07;5.15;;;;;;;;;;8281467;28;20046;-93
2022/12/31 15:02:50;;;;;;;8.32;4.82;;;;;;;;;;8286961;28;20042;-94
2022/12/31 15:07:00;;;;;;;10.68;6.75;;;;;;;;;;8284943;28;20379;-92
2022/12/31 15:11:22;;;;;;;12.05;7.25;;;;;;;;;;8284552;28;20046;-93
2022/12/31 15:16:02;;;;;;;10.60;5.15;;;;;;;;;;8291825;28;20080;-91
2022/12/31 15:20:31;;;;;;;9.27;5.15;;;;;;;;;;8281566;28;20064;-93
2022/12/31 15:24:34;;;;;;;8.50;4.95;;;;;;;;;;8273898;28;20632;-93
2022/12/31 15:28:40;;;;;;;9.27;4.05;;;;;;;;;;8269885;28;20049;-91
2022/12/31 15:32:47;;;;;;;6.82;3.92;;;;;;;;;;8280183;28;20046;-92
2022/12/31 15:36:53;;;;;;;8.20;4.30;;;;;;;;;;8283746;28;20055;-91
2022/12/31 15:40:56;;;;;;;9.00;4.15;;;;;;;;;;8285473;28;20053;-93
2022/12/31 15:45:06;;;;;;;6.88;4.25;;;;;;;;;;8287024;28;20124;-92
2022/12/31 15:49:12;;;;;;;7.63;4.00;;;;;;;;;;8281858;28;20057;-92
2022/12/31 15:53:26;;;;;;;7.90;4.35;;;;;;;;;;8288515;28;20064;-92
2022/12/31 15:57:32;;;;;;;9.07;4.10;;;;;;;;;;8277260;28;20052;-93
2022/12/31 16:01:40;;;;;;;7.72;4.63;;;;;;;;;;8294219;28;20052;-93
2022/12/31 16:05:42;;;;;;;8.98;4.25;;;;;;;;;;8284053;28;20045;-93
2022/12/31 16:09:51;;;;;;;7.65;4.10;;;;;;;;;;8287616;28;20050;-91
2022/12/31 16:13:55;;;;;;;8.23;4.18;;;;;;;;;;8299535;28;20052;-91
2022/12/31 16:18:03;;;;;;;19.65;11.23;;;;;;;;;;8283715;28;20552;-92
2022/12/31 16:22:14;;;;;;;8.45;5.13;;;;;;;;;;8301100;28;20442;-91
2022/12/31 16:26:17;;;;;;;8.53;5.33;;;;;;;;;;8281804;28;20486;-89
2022/12/31 16:30:22;;;;;;;10.00;5.57;;;;;;;;;;8289071;28;20035;-90
2022/12/31 16:34:28;;;;;;;9.52;5.43;;;;;;;;;;8274907;28;20046;-92
2022/12/31 16:38:33;;;;;;;7.93;4.53;;;;;;;;;;8289938;28;20037;-91
2022/12/31 16:42:39;;;;;;;8.63;5.20;;;;;;;;;;8284587;28;20093;-90
2022/12/31 16:46:42;;;;;;;9.95;5.20;;;;;;;;;;8280560;28;20145;-88
2022/12/31 16:50:49;;;;;;;19.63;10.43;;;;;;;;;;8289327;28;20046;-90
2022/12/31 16:54:54;;;;;;;9.68;5.28;;;;;;;;;;8282935;28;20121;-92
2022/12/31 16:59:01;;;;;;;11.63;6.65;;;;;;;;;;8286424;28;20096;-88
2022/12/31 17:03:10;;;;;;;12.38;5.65;;;;;;;;;;8275658;28;20474;-90
2022/12/31 17:07:37;;;;;;;11.93;6.47;;;;;;;;;;8275449;28;20080;-89
2022/12/31 17:11:44;;;;;;;10.18;5.68;;;;;;;;;;8274686;28;20128;-89
2022/12/31 17:15:47;;;;;;;9.90;5.50;;;;;;;;;;8273559;28;20478;-88
2022/12/31 17:19:55;;;;;;;11.85;5.00;;;;;;;;;;8271552;28;20046;-88
2022/12/31 17:24:03;;;;;;;9.50;5.80;;;;;;;;;;8278635;28;20132;-89
2022/12/31 17:28:18;;;;;;;9.80;4.78;;;;;;;;;;8271426;28;20066;-89
2022/12/31 17:32:30;;;;;;;9.45;5.40;;;;;;;;;;8265130;28;20050;-90
2022/12/31 17:36:34;;;;;;;10.48;4.93;;;;;;;;;;8247099;28;20128;-88
2022/12/31 17:40:40;;;;;;;12.00;6.00;;;;;;;;;;8283058;28;20054;-88
2022/12/31 17:44:44;;;;;;;11.48;5.40;;;;;;;;;;8271363;28;20490;-89
2022/12/31 17:48:52;;;;;;;13.38;5.82;;;;;;;;;;8272673;28;20525;-91
2022/12/31 17:52:58;;;;;;;14.23;5.80;;;;;;;;;;8280657;28;20398;-89
2022/12/31 17:57:02;;;;;;;10.95;5.43;;;;;;;;;;8263735;28;20057;-88
2022/12/31 18:01:07;;;;;;;8.32;4.80;;;;;;;;;;8275319;28;20046;-88
2022/12/31 18:05:15;;;;;;;14.00;7.10;;;;;;;;;;8263359;28;20050;-87
2022/12/31 18:09:18;;;;;;;18.52;8.25;;;;;;;;;;8267770;28;20050;-89
2022/12/31 18:13:24;;;;;;;29.80;13.75;;;;;;;;;;8260885;28;20053;-89
2022/12/31 18:17:29;;;;;;;12.73;7.35;;;;;;;;;;8261518;28;20483;-90
2022/12/31 18:21:33;;;;;;;17.58;10.07;;;;;;;;;;8269456;28;20050;-88
2022/12/31 18:25:36;;;;;;;11.98;6.15;;;;;;;;;;8281275;28;20049;-88
2022/12/31 18:29:40;;;;;;;15.98;8.25;;;;;;;;;;8278524;28;20061;-91
2022/12/31 18:33:43;;;;;;;16.67;11.27;;;;;;;;;;8265769;28;20070;-89
2022/12/31 18:37:46;;;;;;;11.88;6.65;;;;;;;;;;8281588;28;20133;-91
2022/12/31 18:41:49;;;;;;;10.75;6.25;;;;;;;;;;8275330;28;20553;-92
2022/12/31 18:45:54;;;;;;;10.90;5.93;;;;;;;;;;8265615;28;20101;-92
2022/12/31 18:49:56;;;;;;;16.50;7.68;;;;;;;;;;8274416;28;20070;-93
2022/12/31 18:53:59;;;;;;;12.93;6.50;;;;;;;;;;8267506;28;20046;-90
2022/12/31 18:58:02;;;;;;;11.93;6.22;;;;;;;;;;8271441;28;20050;-92
2022/12/31 19:02:13;;;;;;;13.85;6.15;;;;;;;;;;8267475;28;20043;-90
2022/12/31 19:06:16;;;;;;;11.43;6.18;;;;;;;;;;8280847;28;20165;-91
2022/12/31 19:10:20;;;;;;;11.70;6.07;;;;;;;;;;8268179;28;20046;-91
2022/12/31 19:14:25;;;;;;;12.13;6.00;;;;;;;;;;8259501;28;20053;-90
2022/12/31 19:18:29;;;;;;;11.10;6.03;;;;;;;;;;8289979;28;20403;-92
2022/12/31 19:22:32;;;;;;;12.52;5.80;;;;;;;;;;8278323;28;20054;-90
2022/12/31 19:26:35;;;;;;;17.58;9.05;;;;;;;;;;8273287;28;20084;-90
2022/12/31 19:30:38;;;;;;;12.18;5.80;;;;;;;;;;8273432;28;20069;-90
2022/12/31 19:34:42;;;;;;;12.07;5.43;;;;;;;;;;8270249;28;20510;-90
2022/12/31 19:38:45;;;;;;;13.50;6.88;;;;;;;;;;8280837;28;20548;-90
2022/12/31 19:42:47;;;;;;;11.45;5.72;;;;;;;;;;8268041;28;20056;-89
2022/12/31 19:46:51;;;;;;;14.30;6.53;;;;;;;;;;8273117;28;20242;-89
2022/12/31 19:50:55;;;;;;;12.98;6.60;;;;;;;;;;8272362;28;20054;-90
2022/12/31 19:54:58;;;;;;;12.70;6.28;;;;;;;;;;8268898;28;20057;-90
2022/12/31 19:59:04;;;;;;;12.68;6.28;;;;;;;;;;8266747;28;20053;-90
2022/12/31 20:03:07;;;;;;;12.20;5.43;;;;;;;;;;8267132;28;20050;-90
2022/12/31 20:07:11;;;;;;;11.52;5.93;;;;;;;;;;8273923;28;20078;-90
2022/12/31 20:11:17;;;;;;;13.68;5.93;;;;;;;;;;8269156;28;20517;-89
2022/12/31 20:15:20;;;;;;;12.02;6.10;;;;;;;;;;8255470;28;20050;-89
2022/12/31 20:19:23;;;;;;;10.52;5.88;;;;;;;;;;8263859;28;20061;-89
2022/12/31 20:23:27;;;;;;;11.63;5.72;;;;;;;;;;8267786;28;20049;-89
2022/12/31 20:27:30;;;;;;;16.10;7.60;;;;;;;;;;8267308;28;20056;-90
2022/12/31 20:31:32;;;;;;;11.65;5.68;;;;;;;;;;8264139;28;20046;-90
2022/12/31 20:35:35;;;;;;;11.68;5.70;;;;;;;;;;8265915;28;20077;-90
2022/12/31 20:39:41;;;;;;;13.98;6.95;;;;;;;;;;8271533;28;20129;-90
2022/12/31 20:43:44;;;;;;;10.75;6.25;;;;;;;;;;8275431;28;20117;-90
2022/12/31 20:47:47;;;;;;;12.32;6.13;;;;;;;;;;8273664;28;20564;-91
2022/12/31 20:51:53;;;;;;;13.52;7.35;;;;;;;;;;8266345;28;20050;-92
2022/12/31 20:56:04;;;;;;;15.00;6.30;;;;;;;;;;8269610;28;20107;-91
2022/12/31 21:00:08;;;;;;;11.13;5.60;;;;;;;;;;8265548;28;20861;-91
2022/12/31 21:04:11;;;;;;;8.88;5.30;;;;;;;;;;8275691;28;20078;-90
2022/12/31 21:08:14;;;;;;;9.95;5.20;;;;;;;;;;8266293;28;20046;-90
2022/12/31 21:16:39;;;;;;;16.65;7.10;;;;;;;;;;8291224;28;20085;-89
2022/12/31 21:20:46;;;;;;;11.15;6.72;;;;;;;;;;8274218;28;20049;-90
2022/12/31 21:24:49;;;;;;;10.10;5.57;;;;;;;;;;8267043;28;20136;-90
2022/12/31 21:28:54;;;;;;;10.52;6.20;;;;;;;;;;8277668;28;20053;-88
2022/12/31 21:32:57;;;;;;;9.85;5.70;;;;;;;;;;8283033;28;20120;-89
2022/12/31 21:37:00;;;;;;;11.63;6.00;;;;;;;;;;8274052;28;20081;-90
2022/12/31 21:41:03;;;;;;;12.63;5.78;;;;;;;;;;8266632;28;20049;-90
2022/12/31 21:45:09;;;;;;;12.07;6.05;;;;;;;;;;8285339;28;20054;-91
2022/12/31 21:49:12;;;;;;;11.77;6.28;;;;;;;;;;8262497;28;20542;-90
2022/12/31 21:53:15;;;;;;;14.10;6.90;;;;;;;;;;8271627;28;20124;-90
2022/12/31 21:57:18;;;;;;;11.32;6.35;;;;;;;;;;8272162;28;20125;-90
2022/12/31 22:05:48;;;;;;;14.10;6.30;;;;;;;;;;8274873;28;20050;-90
2022/12/31 22:09:51;;;;;;;15.40;7.78;;;;;;;;;;8260558;28;20120;-90
2022/12/31 22:13:54;;;;;;;13.60;7.57;;;;;;;;;;8267512;28;20256;-90
2022/12/31 22:17:59;;;;;;;13.60;7.35;;;;;;;;;;8267696;28;20157;-90
2022/12/31 22:22:01;;;;;;;14.77;7.60;;;;;;;;;;8264844;28;20050;-90
2022/12/31 22:26:05;;;;;;;11.93;5.95;;;;;;;;;;8260368;28;20085;-89
2022/12/31 22:30:09;;;;;;;13.43;7.13;;;;;;;;;;8259696;28;20100;-90
2022/12/31 22:34:14;;;;;;;14.60;7.38;;;;;;;;;;8251446;28;20142;-90
2022/12/31 22:38:17;;;;;;;13.70;7.35;;;;;;;;;;8268543;28;20053;-91
2022/12/31 22:42:19;;;;;;;12.77;6.82;;;;;;;;;;8263301;28;20046;-90
2022/12/31 22:46:24;;;;;;;15.43;8.27;;;;;;;;;;8274392;28;20108;-88
2022/12/31 22:50:28;;;;;;;15.68;7.80;;;;;;;;;;8268982;28;20066;-90
2022/12/31 22:54:31;;;;;;;15.68;8.52;;;;;;;;;;8263445;28;20051;-90
2022/12/31 22:58:34;;;;;;;10.27;5.85;;;;;;;;;;8273562;28;20054;-90
2022/12/31 23:02:37;;;;;;;13.23;6.63;;;;;;;;;;8271905;28;20056;-90
2022/12/31 23:06:43;;;;;;;12.18;6.53;;;;;;;;;;8259027;28;20418;-89
2022/12/31 23:10:59;;;;;;;14.82;7.78;;;;;;;;;;8262558;28;20057;-90
2022/12/31 23:23:44;;;;;;;16.83;7.38;;;;;;;;;;8283903;28;20049;-88
2022/12/31 23:27:47;;;;;;;14.85;6.95;;;;;;;;;;8282025;28;20104;-89
2022/12/31 23:31:49;;;;;;;10.77;6.10;;;;;;;;;;8285310;28;20482;-89
2022/12/31 23:36:02;;;;;;;11.88;6.20;;;;;;;;;;8289626;28;20057;-89
2022/12/31 23:40:08;;;;;;;12.45;6.45;;;;;;;;;;8285005;28;20045;-90
2022/12/31 23:44:12;;;;;;;11.30;6.43;;;;;;;;;;8295572;28;20058;-89
2022/12/31 23:48:15;;;;;;;14.02;7.28;;;;;;;;;;8295676;28;20050;-88
2022/12/31 23:52:17;;;;;;;12.93;7.07;;;;;;;;;;8295940;28;20453;-89
2022/12/31 23:56:22;;;;;;;12.75;6.40;;;;;;;;;;8292857;28;20641;-88
